createdAt,value
2023-12-09T00:01:23.401Z,11.77
2023-12-09T00:03:51.408Z,11.38
2023-12-09T00:06:21.228Z,10.25
2023-12-09T00:08:51.736Z,8.63
2023-12-09T00:11:20.196Z,9.68
2023-12-09T00:13:48.578Z,9.77
2023-12-09T00:16:16.588Z,12.88
2023-12-09T00:18:44.668Z,10.82
2023-12-09T00:21:13.007Z,8.98
2023-12-09T00:23:47.444Z,8.88
2023-12-09T00:26:18.415Z,11.95
2023-12-09T00:28:48.111Z,8.63
2023-12-09T00:31:16.448Z,7.15
2023-12-09T00:33:45.260Z,8.50
2023-12-09T00:36:13.881Z,9.80
2023-12-09T00:38:42.056Z,13.57
2023-12-09T00:41:11.956Z,8.32
2023-12-09T00:43:41.747Z,10.05
2023-12-09T00:46:09.726Z,8.32
2023-12-09T00:48:37.760Z,11.55
2023-12-09T00:51:07.189Z,9.90
2023-12-09T00:53:35.223Z,10.15
2023-12-09T00:56:03.374Z,11.18
2023-12-09T00:58:31.333Z,10.95
2023-12-09T01:01:01.002Z,10.20
2023-12-09T01:03:29.027Z,10.52
2023-12-09T01:05:57.554Z,9.52
2023-12-09T01:08:27.223Z,11.57
2023-12-09T01:10:55.917Z,11.00
2023-12-09T01:13:24.124Z,11.80
2023-12-09T01:15:52.513Z,12.25
2023-12-09T01:18:22.064Z,11.55
2023-12-09T01:20:50.529Z,9.98
2023-12-09T01:23:19.394Z,12.13
2023-12-09T01:25:47.395Z,11.68
2023-12-09T01:28:15.314Z,12.43
2023-12-09T01:30:43.347Z,13.40
2023-12-09T01:33:11.787Z,11.38
2023-12-09T01:35:41.311Z,14.95
2023-12-09T01:38:10.219Z,12.15
2023-12-09T01:40:38.345Z,13.43
2023-12-09T01:43:10.686Z,12.93
2023-12-09T01:45:39.074Z,16.08
2023-12-09T01:48:09.670Z,12.45
2023-12-09T01:50:38.522Z,12.52
2023-12-09T01:53:08.325Z,14.18
2023-12-09T01:55:36.759Z,15.27
2023-12-09T01:58:05.130Z,13.43
2023-12-09T02:00:33.603Z,11.95
2023-12-09T02:03:01.743Z,13.70
2023-12-09T02:05:29.751Z,14.35
2023-12-09T02:07:58.436Z,13.85
2023-12-09T02:10:28.597Z,13.57
2023-12-09T02:13:03.000Z,13.15
2023-12-09T02:15:41.207Z,11.80
2023-12-09T02:18:12.642Z,14.25
2023-12-09T02:20:40.737Z,13.48
2023-12-09T02:23:10.421Z,15.65
2023-12-09T02:25:40.107Z,14.27
2023-12-09T02:28:14.690Z,14.05
2023-12-09T02:30:51.298Z,14.00
2023-12-09T02:33:20.938Z,13.80
2023-12-09T02:35:51.595Z,14.70
2023-12-09T02:38:22.356Z,17.77
2023-12-09T02:40:53.292Z,15.80
2023-12-09T02:43:21.770Z,14.25
2023-12-09T02:45:50.029Z,14.43
2023-12-09T02:48:18.472Z,14.70
2023-12-09T02:50:47.301Z,15.65
2023-12-09T02:53:15.659Z,16.30
2023-12-09T02:55:45.182Z,18.23
2023-12-09T02:58:14.239Z,13.20
2023-12-09T03:00:42.581Z,20.90
2023-12-09T03:03:10.178Z,14.98
2023-12-09T03:05:38.186Z,13.40
2023-12-09T03:08:05.287Z,15.30
2023-12-09T03:10:34.121Z,15.95
2023-12-09T03:13:03.797Z,11.98
2023-12-09T03:15:32.062Z,13.70
2023-12-09T03:18:00.503Z,15.32
2023-12-09T03:20:28.566Z,16.45
2023-12-09T03:22:56.459Z,14.40
2023-12-09T03:25:24.650Z,15.73
2023-12-09T03:27:54.325Z,14.48
2023-12-09T03:30:24.089Z,17.65
2023-12-09T03:32:52.143Z,15.68
2023-12-09T03:35:20.579Z,14.57
2023-12-09T03:37:48.755Z,15.20
2023-12-09T03:40:17.372Z,17.40
2023-12-09T03:42:45.544Z,15.73
2023-12-09T03:45:13.674Z,14.57
2023-12-09T03:47:43.148Z,13.68
2023-12-09T03:50:11.931Z,17.38
2023-12-09T03:52:41.040Z,15.65
2023-12-09T03:55:11.519Z,13.57
2023-12-09T03:57:39.711Z,17.35
2023-12-09T04:00:10.542Z,14.10
2023-12-09T04:02:38.721Z,15.23
2023-12-09T04:05:11.854Z,17.80
2023-12-09T04:07:39.794Z,12.88
2023-12-09T04:10:10.494Z,14.23
2023-12-09T04:12:38.725Z,17.42
2023-12-09T04:15:08.207Z,16.17
2023-12-09T04:17:36.424Z,14.18
2023-12-09T04:20:05.901Z,13.63
2023-12-09T04:22:35.856Z,18.90
2023-12-09T04:25:06.423Z,14.40
2023-12-09T04:27:34.584Z,16.73
2023-12-09T04:30:04.567Z,18.15
2023-12-09T04:32:33.143Z,15.90
2023-12-09T04:35:02.000Z,16.42
2023-12-09T04:37:30.155Z,15.02
2023-12-09T04:39:59.457Z,12.15
2023-12-09T04:42:28.344Z,12.60
2023-12-09T04:44:57.061Z,15.65
2023-12-09T04:47:26.144Z,18.23
2023-12-09T04:49:54.399Z,17.23
2023-12-09T04:52:22.466Z,20.60
2023-12-09T04:54:50.848Z,16.05
2023-12-09T04:57:20.375Z,12.82
2023-12-09T04:59:48.315Z,14.52
2023-12-09T05:02:16.331Z,14.80
2023-12-09T05:04:44.569Z,17.58
2023-12-09T05:07:14.197Z,16.50
2023-12-09T05:09:42.902Z,16.33
2023-12-09T05:12:11.653Z,13.40
2023-12-09T05:14:41.279Z,17.50
2023-12-09T05:17:09.457Z,14.05
2023-12-09T05:19:37.713Z,12.38
2023-12-09T05:22:06.266Z,17.17
2023-12-09T05:24:34.484Z,15.57
2023-12-09T05:27:02.677Z,14.52
2023-12-09T05:29:30.930Z,12.02
2023-12-09T05:32:00.709Z,11.93
2023-12-09T05:34:28.876Z,19.98
2023-12-09T05:36:56.939Z,16.48
2023-12-09T05:39:27.306Z,12.35
2023-12-09T05:41:55.282Z,18.50
2023-12-09T05:44:23.680Z,12.27
2023-12-09T05:46:52.791Z,14.13
2023-12-09T05:49:22.494Z,10.57
2023-12-09T05:51:50.983Z,16.00
2023-12-09T05:54:19.495Z,16.98
2023-12-09T05:56:51.433Z,12.75
2023-12-09T05:59:19.398Z,14.40
2023-12-09T06:01:47.596Z,12.38
2023-12-09T06:04:16.232Z,13.43
2023-12-09T06:06:46.113Z,16.83
2023-12-09T06:09:14.567Z,13.82
2023-12-09T06:11:42.545Z,12.55
2023-12-09T06:14:10.551Z,11.25
2023-12-09T06:16:38.943Z,11.65
2023-12-09T06:19:06.835Z,11.82
2023-12-09T06:21:35.269Z,8.90
2023-12-09T06:24:05.833Z,12.20
2023-12-09T06:26:34.234Z,10.82
2023-12-09T06:29:02.245Z,10.63
2023-12-09T06:31:31.437Z,8.38
2023-12-09T06:33:59.745Z,10.38
2023-12-09T06:36:28.112Z,11.40
2023-12-09T06:38:56.088Z,8.75
2023-12-09T06:41:25.755Z,8.55
2023-12-09T06:43:54.446Z,11.57
2023-12-09T06:46:22.926Z,13.63
2023-12-09T06:48:51.125Z,11.75
2023-12-09T06:51:19.652Z,11.35
2023-12-09T06:53:47.861Z,10.73
2023-12-09T06:56:22.188Z,11.85
2023-12-09T06:58:52.693Z,13.43
2023-12-09T07:01:22.413Z,10.82
2023-12-09T07:03:51.331Z,11.05
2023-12-09T07:06:23.191Z,15.05
2023-12-09T07:08:52.251Z,10.00
2023-12-09T07:11:20.619Z,13.43
2023-12-09T07:13:49.837Z,9.57
2023-12-09T07:16:19.629Z,11.00
2023-12-09T07:18:48.953Z,11.32
2023-12-09T07:21:18.002Z,9.50
2023-12-09T07:23:46.724Z,9.57
2023-12-09T07:26:15.325Z,7.85
2023-12-09T07:28:43.288Z,8.77
2023-12-09T07:31:11.692Z,8.82
2023-12-09T07:33:41.542Z,9.75
2023-12-09T07:36:10.571Z,8.48
2023-12-09T07:38:38.545Z,9.13
2023-12-09T07:41:07.703Z,7.82
2023-12-09T07:43:37.857Z,8.75
2023-12-09T07:46:08.072Z,7.75
2023-12-09T07:48:36.362Z,9.25
2023-12-09T07:51:06.598Z,9.15
2023-12-09T07:53:35.057Z,9.75
2023-12-09T07:56:03.006Z,11.18
2023-12-09T07:58:31.223Z,11.35
2023-12-09T08:01:01.638Z,11.70
2023-12-09T08:03:32.269Z,9.02
2023-12-09T08:06:00.718Z,8.63
2023-12-09T08:08:30.122Z,8.52
2023-12-09T08:11:00.276Z,8.05
2023-12-09T08:13:28.158Z,7.28
2023-12-09T08:15:56.144Z,6.93
2023-12-09T08:18:24.235Z,6.18
2023-12-09T08:20:52.638Z,7.72
2023-12-09T08:23:20.963Z,9.27
2023-12-09T08:25:51.251Z,9.52
2023-12-09T08:28:19.613Z,9.57
2023-12-09T08:30:48.185Z,9.50
2023-12-09T08:33:16.760Z,8.52
2023-12-09T08:35:44.982Z,9.30
2023-12-09T08:38:13.181Z,8.23
2023-12-09T08:40:41.112Z,9.35
2023-12-09T08:43:10.672Z,9.88
2023-12-09T08:45:38.927Z,7.50
2023-12-09T08:48:08.322Z,9.15
2023-12-09T08:50:37.345Z,6.97
2023-12-09T08:53:05.716Z,8.48
2023-12-09T08:55:35.703Z,5.95
2023-12-09T08:58:04.392Z,10.98
2023-12-09T09:00:34.137Z,9.68
2023-12-09T09:03:04.818Z,8.68
2023-12-09T09:05:33.050Z,5.53
2023-12-09T09:08:01.245Z,7.30
2023-12-09T09:10:29.564Z,8.02
2023-12-09T09:12:57.882Z,6.97
2023-12-09T09:15:26.132Z,6.10
2023-12-09T09:17:55.622Z,5.53
2023-12-09T09:20:24.499Z,5.32
2023-12-09T09:22:52.436Z,10.68
2023-12-09T09:25:20.299Z,5.90
2023-12-09T09:27:52.725Z,6.38
2023-12-09T09:30:23.584Z,6.75
2023-12-09T09:32:52.735Z,6.25
2023-12-09T09:35:24.556Z,6.55
2023-12-09T09:37:52.695Z,8.70
2023-12-09T09:40:21.972Z,8.57
2023-12-09T09:42:55.747Z,7.13
2023-12-09T09:45:28.831Z,6.68
2023-12-09T09:48:05.968Z,7.05
2023-12-09T09:50:44.055Z,6.90
2023-12-09T09:53:15.103Z,9.18
2023-12-09T09:55:43.518Z,6.97
2023-12-09T09:58:12.376Z,5.85
2023-12-09T10:00:40.808Z,7.03
2023-12-09T10:03:08.906Z,8.93
2023-12-09T10:05:38.356Z,7.95
2023-12-09T10:08:09.033Z,6.53
2023-12-09T10:10:46.347Z,8.55
2023-12-09T10:13:15.341Z,10.43
2023-12-09T10:15:52.199Z,7.30
2023-12-09T10:18:23.665Z,8.82
2023-12-09T10:20:53.422Z,5.72
2023-12-09T10:23:23.587Z,6.40
2023-12-09T10:25:51.810Z,7.53
2023-12-09T10:28:27.404Z,8.00
2023-12-09T10:30:55.613Z,6.03
2023-12-09T10:33:25.314Z,5.63
2023-12-09T10:35:55.316Z,4.93
2023-12-09T10:38:23.267Z,5.35
2023-12-09T10:40:51.501Z,5.97
2023-12-09T10:43:19.867Z,5.97
2023-12-09T10:45:48.047Z,5.13
2023-12-09T10:48:16.335Z,5.75
2023-12-09T10:50:47.589Z,9.23
2023-12-09T10:53:17.581Z,9.32
2023-12-09T10:55:45.582Z,5.00
2023-12-09T10:58:16.160Z,5.45
2023-12-09T11:00:45.034Z,4.45
2023-12-09T11:03:17.336Z,5.55
2023-12-09T11:08:18.290Z,3.17
2023-12-09T11:10:47.221Z,5.05
2023-12-09T11:13:15.692Z,3.38
2023-12-09T11:15:44.669Z,5.65
2023-12-09T11:18:17.679Z,2.53
2023-12-09T11:20:47.300Z,4.07
2023-12-09T11:23:17.269Z,3.70
2023-12-09T11:25:45.228Z,5.75
2023-12-09T11:28:14.240Z,3.25
2023-12-09T11:30:47.700Z,3.63
2023-12-09T11:33:16.322Z,2.00
2023-12-09T11:35:48.493Z,2.55
2023-12-09T11:38:18.979Z,5.75
2023-12-09T11:40:47.801Z,2.67
2023-12-09T11:43:18.433Z,3.63
2023-12-09T11:45:46.632Z,3.17
2023-12-09T11:48:15.241Z,3.97
2023-12-09T11:50:43.932Z,4.93
2023-12-09T11:53:12.151Z,3.30
2023-12-09T11:55:41.794Z,5.50
2023-12-09T11:58:11.309Z,3.47
2023-12-09T12:00:39.362Z,3.35
2023-12-09T12:03:07.880Z,6.78
2023-12-09T12:05:37.366Z,3.47
2023-12-09T12:08:06.465Z,2.47
2023-12-09T12:10:37.124Z,2.72
2023-12-09T12:13:08.013Z,4.50
2023-12-09T12:15:36.351Z,4.68
2023-12-09T12:18:04.923Z,3.30
2023-12-09T12:20:33.182Z,3.05
2023-12-09T12:23:01.307Z,3.97
2023-12-09T12:25:31.635Z,3.78
2023-12-09T12:28:00.125Z,2.83
2023-12-09T12:30:30.090Z,4.90
2023-12-09T12:32:58.788Z,3.55
2023-12-09T12:35:27.564Z,2.97
2023-12-09T12:37:58.065Z,5.32
2023-12-09T12:40:28.132Z,2.70
2023-12-09T12:42:56.437Z,2.88
2023-12-09T12:45:28.863Z,2.47
2023-12-09T12:47:58.895Z,3.13
2023-12-09T12:50:27.261Z,3.08
2023-12-09T12:52:56.281Z,2.75
2023-12-09T12:55:24.999Z,1.83
2023-12-09T12:57:54.314Z,2.75
2023-12-09T13:00:24.720Z,2.58
2023-12-09T13:02:52.626Z,2.67
2023-12-09T13:05:22.254Z,9.35
2023-12-09T13:07:50.498Z,1.52
2023-12-09T13:10:18.696Z,1.65
2023-12-09T13:12:46.980Z,1.75
2023-12-09T13:15:16.504Z,2.05
2023-12-09T13:17:45.596Z,2.35
2023-12-09T13:20:14.556Z,3.10
2023-12-09T13:22:46.544Z,2.95
2023-12-09T13:25:15.348Z,2.42
2023-12-09T13:27:44.692Z,1.73
2023-12-09T13:30:17.892Z,3.03
2023-12-09T13:32:47.218Z,2.15
2023-12-09T13:35:16.324Z,3.15
2023-12-09T13:37:46.385Z,2.03
2023-12-09T13:40:15.494Z,2.13
2023-12-09T13:42:43.723Z,1.92
2023-12-09T13:45:14.837Z,2.20
2023-12-09T13:47:45.682Z,2.33
2023-12-09T13:50:14.057Z,2.35
2023-12-09T13:52:42.773Z,2.83
2023-12-09T13:55:12.640Z,3.47
2023-12-09T13:57:42.109Z,2.65
2023-12-09T14:00:14.380Z,2.72
2023-12-09T14:02:44.535Z,3.80
2023-12-09T14:05:15.432Z,3.08
2023-12-09T14:07:44.468Z,4.22
2023-12-09T14:10:15.375Z,3.38
2023-12-09T14:12:45.599Z,6.65
2023-12-09T14:15:14.251Z,7.38
2023-12-09T14:17:44.760Z,7.63
2023-12-09T14:20:16.365Z,9.77
2023-12-09T14:22:46.894Z,6.13
2023-12-09T14:25:16.728Z,6.53
2023-12-09T14:27:45.091Z,6.70
2023-12-09T14:30:13.962Z,5.88
2023-12-09T14:32:45.816Z,5.65
2023-12-09T14:37:49.151Z,4.15
2023-12-09T14:40:20.002Z,4.90
2023-12-09T14:42:48.328Z,5.10
2023-12-09T14:45:16.914Z,4.65
2023-12-09T14:47:50.745Z,4.97
2023-12-09T14:50:26.160Z,4.47
2023-12-09T14:52:54.330Z,6.20
2023-12-09T14:55:23.813Z,5.97
2023-12-09T14:57:52.952Z,4.13
2023-12-09T15:00:21.584Z,4.38
2023-12-09T15:02:51.795Z,4.68
2023-12-09T15:05:20.003Z,6.55
2023-12-09T15:07:48.382Z,5.20
2023-12-09T15:10:16.996Z,7.38
2023-12-09T15:12:48.874Z,6.38
2023-12-09T15:15:17.886Z,8.55
2023-12-09T15:17:46.869Z,5.75
2023-12-09T15:20:16.097Z,7.20
2023-12-09T15:22:45.256Z,5.75
2023-12-09T15:25:17.015Z,6.53
2023-12-09T15:27:46.966Z,6.28
2023-12-09T15:30:16.138Z,5.22
2023-12-09T15:32:45.430Z,5.75
2023-12-09T15:35:13.927Z,6.00
2023-12-09T15:37:42.139Z,7.63
2023-12-09T15:40:12.003Z,4.80
2023-12-09T15:42:40.437Z,6.43
2023-12-09T15:45:11.401Z,7.20
2023-12-09T15:47:40.013Z,6.43
2023-12-09T15:50:11.219Z,7.85
2023-12-09T15:52:39.187Z,6.00
2023-12-09T15:55:07.675Z,8.57
2023-12-09T15:57:38.174Z,8.02
2023-12-09T16:00:07.505Z,7.78
2023-12-09T16:02:36.994Z,8.88
2023-12-09T16:05:06.346Z,11.43
2023-12-09T16:07:35.148Z,9.98
2023-12-09T16:10:02.785Z,9.25
2023-12-09T16:12:31.299Z,9.65
2023-12-09T16:15:01.791Z,8.13
2023-12-09T16:17:31.910Z,9.25
2023-12-09T16:20:03.564Z,7.68
2023-12-09T16:22:31.882Z,7.50
2023-12-09T16:25:00.553Z,8.45
2023-12-09T16:27:29.389Z,9.82
2023-12-09T16:29:57.583Z,11.30
2023-12-09T16:32:26.985Z,9.90
2023-12-09T16:34:55.269Z,10.10
2023-12-09T16:37:25.936Z,11.02
2023-12-09T16:39:53.998Z,9.65
2023-12-09T16:42:22.391Z,10.75
2023-12-09T16:44:50.543Z,9.10
2023-12-09T16:47:18.787Z,8.50
2023-12-09T16:49:47.013Z,9.93
2023-12-09T16:52:15.200Z,10.18
2023-12-09T16:54:44.992Z,9.15
2023-12-09T16:57:16.116Z,11.25
2023-12-09T16:59:44.370Z,10.00
2023-12-09T17:02:12.295Z,8.63
2023-12-09T17:04:40.294Z,12.02
2023-12-09T17:07:08.263Z,9.93
2023-12-09T17:09:36.443Z,13.85
2023-12-09T17:12:06.622Z,11.00
2023-12-09T17:14:36.742Z,13.82
2023-12-09T17:17:05.381Z,13.63
2023-12-09T17:19:33.528Z,11.52
2023-12-09T17:22:02.186Z,13.98
2023-12-09T17:24:32.000Z,11.20
2023-12-09T17:27:00.066Z,10.52
2023-12-09T17:29:29.282Z,12.15
2023-12-09T17:31:57.451Z,12.77
2023-12-09T17:34:25.722Z,13.00
2023-12-09T17:36:54.097Z,11.88
2023-12-09T17:39:22.034Z,10.73
2023-12-09T17:41:51.479Z,11.63
2023-12-09T17:44:22.025Z,14.98
2023-12-09T17:46:52.122Z,12.68
2023-12-09T17:49:21.586Z,12.93
2023-12-09T17:51:50.377Z,13.27
2023-12-09T17:54:17.646Z,13.35
2023-12-09T17:56:46.034Z,14.75
2023-12-09T17:59:14.358Z,10.60
2023-12-09T18:01:42.790Z,11.98
2023-12-09T18:04:13.489Z,13.63
2023-12-09T18:06:41.933Z,10.88
2023-12-09T18:09:10.256Z,11.32
2023-12-09T18:11:38.164Z,11.35
2023-12-09T18:14:06.255Z,10.30
2023-12-09T18:16:34.695Z,10.25
2023-12-09T18:19:03.350Z,11.20
2023-12-09T18:21:32.912Z,10.48
2023-12-09T18:24:01.167Z,9.82
2023-12-09T18:26:29.646Z,9.23
2023-12-09T18:28:58.515Z,15.35
2023-12-09T18:31:26.443Z,8.95
2023-12-09T18:33:55.001Z,8.05
2023-12-09T18:36:23.264Z,9.80
2023-12-09T18:38:52.963Z,9.07
2023-12-09T18:41:22.280Z,9.80
2023-12-09T18:43:50.951Z,9.68
2023-12-09T18:46:19.871Z,8.20
2023-12-09T18:48:48.192Z,10.32
2023-12-09T18:51:17.064Z,7.15
2023-12-09T18:53:45.218Z,7.45
2023-12-09T18:56:14.812Z,6.47
2023-12-09T18:58:42.977Z,7.38
2023-12-09T19:01:11.908Z,7.43
2023-12-09T19:03:40.401Z,9.18
2023-12-09T19:06:10.503Z,7.68
2023-12-09T19:08:39.684Z,6.90
2023-12-09T19:11:09.877Z,8.68
2023-12-09T19:13:40.810Z,6.80
2023-12-09T19:16:10.080Z,7.97
2023-12-09T19:18:38.123Z,8.00
2023-12-09T19:21:06.430Z,8.23
2023-12-09T19:23:34.690Z,6.68
2023-12-09T19:26:03.846Z,8.20
2023-12-09T19:28:32.370Z,8.57
2023-12-09T19:31:01.843Z,8.90
2023-12-09T19:33:30.122Z,9.48
2023-12-09T19:35:59.822Z,10.95
2023-12-09T19:38:28.110Z,8.20
2023-12-09T19:40:56.116Z,7.60
2023-12-09T19:43:24.186Z,8.98
2023-12-09T19:45:53.326Z,9.13
2023-12-09T19:48:23.719Z,6.90
2023-12-09T19:50:51.710Z,8.27
2023-12-09T19:53:20.035Z,10.13
2023-12-09T19:55:48.644Z,6.43
2023-12-09T19:58:20.215Z,6.60
2023-12-09T20:00:48.501Z,7.30
2023-12-09T20:03:16.802Z,7.50
2023-12-09T20:05:46.386Z,6.47
2023-12-09T20:08:14.266Z,6.75
2023-12-09T20:10:43.128Z,6.38
2023-12-09T20:13:11.212Z,7.45
2023-12-09T20:15:39.491Z,9.82
2023-12-09T20:18:11.107Z,6.72
2023-12-09T20:20:39.349Z,8.80
2023-12-09T20:23:09.106Z,7.55
2023-12-09T20:25:37.301Z,7.57
2023-12-09T20:28:07.800Z,5.88
2023-12-09T20:30:38.878Z,8.50
2023-12-09T20:33:08.196Z,6.95
2023-12-09T20:35:36.719Z,7.65
2023-12-09T20:38:06.576Z,11.50
2023-12-09T20:40:35.791Z,11.13
2023-12-09T20:43:03.743Z,6.25
2023-12-09T20:45:30.953Z,8.32
2023-12-09T20:47:59.477Z,6.70
2023-12-09T20:50:27.465Z,6.97
2023-12-09T20:52:56.395Z,6.68
2023-12-09T20:55:24.933Z,7.05
2023-12-09T20:57:54.580Z,9.82
2023-12-09T21:00:22.990Z,8.43
2023-12-09T21:02:51.218Z,7.00
2023-12-09T21:05:19.637Z,7.15
2023-12-09T21:07:48.642Z,8.93
2023-12-09T21:10:16.847Z,8.27
2023-12-09T21:12:45.390Z,7.70
2023-12-09T21:15:15.543Z,6.95
2023-12-09T21:17:43.498Z,7.40
2023-12-09T21:20:12.855Z,7.20
2023-12-09T21:22:40.867Z,8.13
2023-12-09T21:25:12.087Z,9.23
2023-12-09T21:27:40.845Z,9.23
2023-12-09T21:30:10.207Z,12.05
2023-12-09T21:32:40.271Z,7.15
2023-12-09T21:35:09.201Z,9.07
2023-12-09T21:37:37.742Z,9.15
2023-12-09T21:40:08.014Z,11.18
2023-12-09T21:42:36.070Z,8.90
2023-12-09T21:45:06.561Z,8.02
2023-12-09T21:47:37.510Z,8.38
2023-12-09T21:50:08.605Z,9.82
2023-12-09T21:52:36.864Z,6.68
2023-12-09T21:55:06.541Z,9.00
2023-12-09T21:57:36.560Z,7.93
2023-12-09T22:00:05.509Z,8.02
2023-12-09T22:02:33.509Z,9.18
2023-12-09T22:05:01.522Z,8.38
2023-12-09T22:07:31.036Z,9.13
2023-12-09T22:09:59.213Z,7.65
2023-12-09T22:12:27.386Z,8.02
2023-12-09T22:14:56.343Z,8.82
2023-12-09T22:17:24.254Z,7.85
2023-12-09T22:19:52.504Z,7.50
2023-12-09T22:22:20.869Z,5.13
2023-12-09T22:24:50.195Z,5.13
2023-12-09T22:27:18.956Z,4.88
2023-12-09T22:29:47.389Z,4.70
2023-12-09T22:32:15.578Z,4.80
2023-12-09T22:34:43.815Z,4.15
2023-12-09T22:37:12.065Z,4.05
2023-12-09T22:39:41.502Z,2.35
2023-12-09T22:42:10.879Z,2.28
2023-12-09T22:44:39.566Z,1.98
2023-12-09T22:47:07.854Z,2.30
2023-12-09T22:49:36.375Z,2.88
2023-12-09T22:52:05.196Z,1.52
2023-12-09T22:54:33.505Z,0.90
2023-12-09T22:57:02.324Z,1.52
2023-12-09T22:59:31.544Z,2.08
2023-12-09T23:01:59.991Z,1.60
2023-12-09T23:04:27.945Z,0.80
2023-12-09T23:06:59.081Z,1.65
2023-12-09T23:09:27.345Z,1.20
2023-12-09T23:11:55.966Z,0.70
2023-12-09T23:14:23.918Z,0.93
2023-12-09T23:16:53.236Z,0.95
2023-12-09T23:19:21.833Z,0.32
2023-12-09T23:21:50.165Z,0.63
2023-12-09T23:24:18.516Z,1.20
2023-12-09T23:26:46.716Z,1.83
2023-12-09T23:29:14.967Z,0.80
2023-12-09T23:31:43.273Z,0.40
2023-12-09T23:34:12.700Z,0.50
2023-12-09T23:36:40.828Z,0.93
2023-12-09T23:39:10.358Z,0.98
2023-12-09T23:41:38.546Z,0.43
2023-12-09T23:44:06.619Z,0.43
2023-12-09T23:46:34.585Z,0.43
2023-12-09T23:49:02.859Z,0.45
2023-12-09T23:51:32.406Z,0.70
2023-12-09T23:54:00.367Z,0.75
2023-12-09T23:56:28.258Z,0.55
2023-12-09T23:58:56.193Z,0.75
